sensor_id;sensor_type;location;lat;lon;timestamp;P1;durP1;ratioP1;P2;durP2;ratioP2
19687;SDS011;9993;52.008;4.732;2023-02-05T00:01:38;34.83;;;16.97;;
19687;SDS011;9993;52.008;4.732;2023-02-05T00:04:03;32.03;;;16.80;;
19687;SDS011;9993;52.008;4.732;2023-02-05T00:06:28;33.67;;;16.80;;
19687;SDS011;9993;52.008;4.732;2023-02-05T00:08:54;39.07;;;18.00;;
19687;SDS011;9993;52.008;4.732;2023-02-05T00:11:19;34.70;;;17.40;;
19687;SDS011;9993;52.008;4.732;2023-02-05T00:13:44;33.23;;;17.73;;
19687;SDS011;9993;52.008;4.732;2023-02-05T00:16:13;32.97;;;16.20;;
19687;SDS011;9993;52.008;4.732;2023-02-05T00:18:39;36.37;;;16.83;;
19687;SDS011;9993;52.008;4.732;2023-02-05T00:21:04;34.33;;;17.10;;
19687;SDS011;9993;52.008;4.732;2023-02-05T00:23:30;32.33;;;16.70;;
19687;SDS011;9993;52.008;4.732;2023-02-05T00:25:55;34.37;;;17.93;;
19687;SDS011;9993;52.008;4.732;2023-02-05T00:28:20;31.07;;;16.23;;
19687;SDS011;9993;52.008;4.732;2023-02-05T00:30:45;31.10;;;15.43;;
19687;SDS011;9993;52.008;4.732;2023-02-05T00:33:11;28.20;;;15.90;;
19687;SDS011;9993;52.008;4.732;2023-02-05T00:35:36;31.33;;;16.37;;
19687;SDS011;9993;52.008;4.732;2023-02-05T00:38:01;34.03;;;15.83;;
19687;SDS011;9993;52.008;4.732;2023-02-05T00:40:26;29.00;;;14.93;;
19687;SDS011;9993;52.008;4.732;2023-02-05T00:42:51;23.67;;;13.47;;
19687;SDS011;9993;52.008;4.732;2023-02-05T00:45:16;24.57;;;13.83;;
19687;SDS011;9993;52.008;4.732;2023-02-05T00:47:42;26.73;;;14.03;;
19687;SDS011;9993;52.008;4.732;2023-02-05T00:50:07;22.60;;;12.33;;
19687;SDS011;9993;52.008;4.732;2023-02-05T00:52:32;27.27;;;11.70;;
19687;SDS011;9993;52.008;4.732;2023-02-05T00:54:57;19.70;;;12.30;;
19687;SDS011;9993;52.008;4.732;2023-02-05T00:57:23;22.47;;;12.63;;
19687;SDS011;9993;52.008;4.732;2023-02-05T00:59:49;18.17;;;11.80;;
19687;SDS011;9993;52.008;4.732;2023-02-05T01:02:15;16.97;;;11.67;;
19687;SDS011;9993;52.008;4.732;2023-02-05T01:04:40;21.00;;;11.83;;
19687;SDS011;9993;52.008;4.732;2023-02-05T01:07:05;21.60;;;11.67;;
19687;SDS011;9993;52.008;4.732;2023-02-05T01:09:30;22.43;;;11.00;;
19687;SDS011;9993;52.008;4.732;2023-02-05T01:11:55;24.17;;;11.93;;
19687;SDS011;9993;52.008;4.732;2023-02-05T01:14:21;20.13;;;10.83;;
19687;SDS011;9993;52.008;4.732;2023-02-05T01:16:46;21.53;;;11.27;;
19687;SDS011;9993;52.008;4.732;2023-02-05T01:19:11;18.33;;;9.73;;
19687;SDS011;9993;52.008;4.732;2023-02-05T01:21:36;17.90;;;9.60;;
19687;SDS011;9993;52.008;4.732;2023-02-05T01:24:02;19.97;;;9.67;;
19687;SDS011;9993;52.008;4.732;2023-02-05T01:26:27;18.17;;;8.83;;
19687;SDS011;9993;52.008;4.732;2023-02-05T01:28:52;20.77;;;9.57;;
19687;SDS011;9993;52.008;4.732;2023-02-05T01:31:17;19.47;;;9.57;;
19687;SDS011;9993;52.008;4.732;2023-02-05T01:33:44;12.97;;;8.07;;
19687;SDS011;9993;52.008;4.732;2023-02-05T01:36:09;17.33;;;8.70;;
19687;SDS011;9993;52.008;4.732;2023-02-05T01:38:34;12.77;;;7.77;;
19687;SDS011;9993;52.008;4.732;2023-02-05T01:41:00;12.37;;;6.87;;
19687;SDS011;9993;52.008;4.732;2023-02-05T01:43:25;12.87;;;7.57;;
19687;SDS011;9993;52.008;4.732;2023-02-05T01:48:23;9.67;;;5.73;;
19687;SDS011;9993;52.008;4.732;2023-02-05T01:50:58;9.30;;;6.20;;
19687;SDS011;9993;52.008;4.732;2023-02-05T01:53:26;12.17;;;5.67;;
19687;SDS011;9993;52.008;4.732;2023-02-05T01:58:24;7.67;;;4.23;;
19687;SDS011;9993;52.008;4.732;2023-02-05T02:00:50;7.07;;;3.83;;
19687;SDS011;9993;52.008;4.732;2023-02-05T02:03:16;7.20;;;3.63;;
19687;SDS011;9993;52.008;4.732;2023-02-05T02:05:41;7.20;;;4.13;;
19687;SDS011;9993;52.008;4.732;2023-02-05T02:08:07;6.00;;;3.50;;
19687;SDS011;9993;52.008;4.732;2023-02-05T02:10:33;5.43;;;3.50;;
19687;SDS011;9993;52.008;4.732;2023-02-05T02:12:59;7.30;;;4.50;;
19687;SDS011;9993;52.008;4.732;2023-02-05T02:15:24;6.10;;;3.90;;
19687;SDS011;9993;52.008;4.732;2023-02-05T02:18:01;5.40;;;3.90;;
19687;SDS011;9993;52.008;4.732;2023-02-05T02:20:47;4.90;;;3.37;;
19687;SDS011;9993;52.008;4.732;2023-02-05T02:28:30;5.73;;;4.03;;
19687;SDS011;9993;52.008;4.732;2023-02-05T02:31:11;5.97;;;4.13;;
19687;SDS011;9993;52.008;4.732;2023-02-05T02:37:34;5.50;;;4.00;;
19687;SDS011;9993;52.008;4.732;2023-02-05T02:40:12;5.47;;;4.77;;
19687;SDS011;9993;52.008;4.732;2023-02-05T02:42:40;6.37;;;4.80;;
19687;SDS011;9993;52.008;4.732;2023-02-05T02:45:09;9.00;;;5.67;;
19687;SDS011;9993;52.008;4.732;2023-02-05T02:47:37;9.27;;;4.93;;
19687;SDS011;9993;52.008;4.732;2023-02-05T02:50:12;5.83;;;4.83;;
19687;SDS011;9993;52.008;4.732;2023-02-05T02:52:39;9.23;;;4.87;;
19687;SDS011;9993;52.008;4.732;2023-02-05T02:55:09;7.50;;;4.97;;
19687;SDS011;9993;52.008;4.732;2023-02-05T02:57:36;10.33;;;4.73;;
19687;SDS011;9993;52.008;4.732;2023-02-05T03:00:05;10.10;;;4.10;;
19687;SDS011;9993;52.008;4.732;2023-02-05T03:02:32;8.97;;;4.20;;
19687;SDS011;9993;52.008;4.732;2023-02-05T03:05:03;8.73;;;4.57;;
19687;SDS011;9993;52.008;4.732;2023-02-05T03:07:32;6.40;;;4.27;;
19687;SDS011;9993;52.008;4.732;2023-02-05T03:12:39;8.20;;;4.30;;
19687;SDS011;9993;52.008;4.732;2023-02-05T03:15:04;8.00;;;4.50;;
19687;SDS011;9993;52.008;4.732;2023-02-05T03:17:30;3.63;;;3.03;;
19687;SDS011;9993;52.008;4.732;2023-02-05T03:19:56;3.57;;;3.20;;
19687;SDS011;9993;52.008;4.732;2023-02-05T03:22:24;10.43;;;3.60;;
19687;SDS011;9993;52.008;4.732;2023-02-05T03:24:49;5.83;;;3.40;;
19687;SDS011;9993;52.008;4.732;2023-02-05T03:27:15;4.93;;;3.10;;
19687;SDS011;9993;52.008;4.732;2023-02-05T03:29:40;10.47;;;3.00;;
19687;SDS011;9993;52.008;4.732;2023-02-05T03:37:39;7.07;;;3.63;;
19687;SDS011;9993;52.008;4.732;2023-02-05T03:40:15;9.37;;;3.87;;
19687;SDS011;9993;52.008;4.732;2023-02-05T03:47:46;7.80;;;4.70;;
19687;SDS011;9993;52.008;4.732;2023-02-05T03:52:40;10.57;;;4.63;;
19687;SDS011;9993;52.008;4.732;2023-02-05T03:55:09;9.50;;;5.47;;
19687;SDS011;9993;52.008;4.732;2023-02-05T04:00:37;10.13;;;6.73;;
19687;SDS011;9993;52.008;4.732;2023-02-05T04:03:03;13.13;;;6.67;;
19687;SDS011;9993;52.008;4.732;2023-02-05T04:05:29;9.33;;;6.23;;
19687;SDS011;9993;52.008;4.732;2023-02-05T04:07:54;16.50;;;6.83;;
19687;SDS011;9993;52.008;4.732;2023-02-05T04:10:19;11.80;;;6.70;;
19687;SDS011;9993;52.008;4.732;2023-02-05T04:12:44;12.30;;;7.17;;
19687;SDS011;9993;52.008;4.732;2023-02-05T04:15:10;11.20;;;6.25;;
19687;SDS011;9993;52.008;4.732;2023-02-05T04:17:38;11.00;;;7.07;;
19687;SDS011;9993;52.008;4.732;2023-02-05T04:20:04;11.10;;;7.30;;
19687;SDS011;9993;52.008;4.732;2023-02-05T04:22:29;13.87;;;7.37;;
19687;SDS011;9993;52.008;4.732;2023-02-05T04:24:55;10.73;;;6.67;;
19687;SDS011;9993;52.008;4.732;2023-02-05T04:27:20;11.97;;;7.50;;
19687;SDS011;9993;52.008;4.732;2023-02-05T04:29:45;12.40;;;7.77;;
19687;SDS011;9993;52.008;4.732;2023-02-05T04:32:10;10.03;;;6.90;;
19687;SDS011;9993;52.008;4.732;2023-02-05T04:34:35;8.93;;;5.50;;
19687;SDS011;9993;52.008;4.732;2023-02-05T04:37:01;9.67;;;6.23;;
19687;SDS011;9993;52.008;4.732;2023-02-05T04:39:26;6.60;;;5.57;;
19687;SDS011;9993;52.008;4.732;2023-02-05T04:41:51;9.40;;;4.97;;
19687;SDS011;9993;52.008;4.732;2023-02-05T04:44:16;5.60;;;5.03;;
19687;SDS011;9993;52.008;4.732;2023-02-05T04:46:42;3.87;;;3.33;;
19687;SDS011;9993;52.008;4.732;2023-02-05T04:49:07;4.67;;;3.40;;
19687;SDS011;9993;52.008;4.732;2023-02-05T04:51:32;6.10;;;3.30;;
19687;SDS011;9993;52.008;4.732;2023-02-05T04:53:57;2.90;;;2.70;;
19687;SDS011;9993;52.008;4.732;2023-02-05T04:56:22;6.60;;;2.97;;
19687;SDS011;9993;52.008;4.732;2023-02-05T04:58:48;4.47;;;3.00;;
19687;SDS011;9993;52.008;4.732;2023-02-05T05:01:14;7.97;;;2.87;;
19687;SDS011;9993;52.008;4.732;2023-02-05T05:03:40;4.63;;;2.13;;
19687;SDS011;9993;52.008;4.732;2023-02-05T05:06:08;4.30;;;2.10;;
19687;SDS011;9993;52.008;4.732;2023-02-05T05:08:34;6.77;;;2.50;;
19687;SDS011;9993;52.008;4.732;2023-02-05T05:10:59;7.00;;;2.77;;
19687;SDS011;9993;52.008;4.732;2023-02-05T05:13:31;7.97;;;2.57;;
19687;SDS011;9993;52.008;4.732;2023-02-05T05:15:56;7.50;;;2.40;;
19687;SDS011;9993;52.008;4.732;2023-02-05T05:18:21;10.13;;;1.90;;
19687;SDS011;9993;52.008;4.732;2023-02-05T05:20:46;7.90;;;2.57;;
19687;SDS011;9993;52.008;4.732;2023-02-05T05:23:11;7.33;;;2.50;;
19687;SDS011;9993;52.008;4.732;2023-02-05T05:25:43;14.33;;;3.13;;
19687;SDS011;9993;52.008;4.732;2023-02-05T05:28:09;11.57;;;2.90;;
19687;SDS011;9993;52.008;4.732;2023-02-05T05:30:36;12.47;;;2.30;;
19687;SDS011;9993;52.008;4.732;2023-02-05T05:33:01;17.73;;;3.00;;
19687;SDS011;9993;52.008;4.732;2023-02-05T05:35:26;12.07;;;3.30;;
19687;SDS011;9993;52.008;4.732;2023-02-05T05:37:52;5.40;;;2.63;;
19687;SDS011;9993;52.008;4.732;2023-02-05T05:40:19;11.87;;;2.93;;
19687;SDS011;9993;52.008;4.732;2023-02-05T05:43:03;12.87;;;2.83;;
19687;SDS011;9993;52.008;4.732;2023-02-05T05:45:47;8.87;;;2.63;;
19687;SDS011;9993;52.008;4.732;2023-02-05T05:48:13;11.67;;;2.80;;
19687;SDS011;9993;52.008;4.732;2023-02-05T05:50:38;8.57;;;2.93;;
19687;SDS011;9993;52.008;4.732;2023-02-05T05:53:03;7.27;;;2.60;;
19687;SDS011;9993;52.008;4.732;2023-02-05T05:55:28;9.47;;;2.40;;
19687;SDS011;9993;52.008;4.732;2023-02-05T05:57:54;6.33;;;2.30;;
19687;SDS011;9993;52.008;4.732;2023-02-05T06:00:19;5.97;;;2.40;;
19687;SDS011;9993;52.008;4.732;2023-02-05T06:02:44;5.53;;;2.60;;
19687;SDS011;9993;52.008;4.732;2023-02-05T06:05:09;7.80;;;2.90;;
19687;SDS011;9993;52.008;4.732;2023-02-05T06:07:35;5.53;;;2.30;;
19687;SDS011;9993;52.008;4.732;2023-02-05T06:10:00;6.60;;;2.37;;
19687;SDS011;9993;52.008;4.732;2023-02-05T06:12:25;7.10;;;2.57;;
19687;SDS011;9993;52.008;4.732;2023-02-05T06:14:50;9.70;;;2.93;;
19687;SDS011;9993;52.008;4.732;2023-02-05T06:17:16;7.37;;;2.33;;
19687;SDS011;9993;52.008;4.732;2023-02-05T06:19:41;6.83;;;2.20;;
19687;SDS011;9993;52.008;4.732;2023-02-05T06:22:06;12.50;;;2.50;;
19687;SDS011;9993;52.008;4.732;2023-02-05T06:24:31;5.97;;;2.47;;
19687;SDS011;9993;52.008;4.732;2023-02-05T06:26:56;11.97;;;2.60;;
19687;SDS011;9993;52.008;4.732;2023-02-05T06:29:22;9.20;;;2.43;;
19687;SDS011;9993;52.008;4.732;2023-02-05T06:31:47;11.30;;;2.80;;
19687;SDS011;9993;52.008;4.732;2023-02-05T06:34:12;9.20;;;3.10;;
19687;SDS011;9993;52.008;4.732;2023-02-05T06:36:37;11.70;;;2.80;;
19687;SDS011;9993;52.008;4.732;2023-02-05T06:39:03;13.33;;;3.30;;
19687;SDS011;9993;52.008;4.732;2023-02-05T06:41:28;11.90;;;3.03;;
19687;SDS011;9993;52.008;4.732;2023-02-05T06:43:53;9.80;;;2.90;;
19687;SDS011;9993;52.008;4.732;2023-02-05T06:46:18;13.90;;;3.77;;
19687;SDS011;9993;52.008;4.732;2023-02-05T06:48:43;11.50;;;2.97;;
19687;SDS011;9993;52.008;4.732;2023-02-05T06:51:09;9.53;;;3.00;;
19687;SDS011;9993;52.008;4.732;2023-02-05T06:53:34;11.50;;;3.07;;
19687;SDS011;9993;52.008;4.732;2023-02-05T06:55:59;9.20;;;2.70;;
19687;SDS011;9993;52.008;4.732;2023-02-05T06:58:24;6.90;;;2.33;;
19687;SDS011;9993;52.008;4.732;2023-02-05T07:00:50;10.27;;;3.30;;
19687;SDS011;9993;52.008;4.732;2023-02-05T07:03:15;11.57;;;3.33;;
19687;SDS011;9993;52.008;4.732;2023-02-05T07:05:40;10.27;;;3.13;;
19687;SDS011;9993;52.008;4.732;2023-02-05T07:08:05;11.10;;;3.43;;
19687;SDS011;9993;52.008;4.732;2023-02-05T07:10:31;12.17;;;2.80;;
19687;SDS011;9993;52.008;4.732;2023-02-05T07:12:56;12.47;;;3.27;;
19687;SDS011;9993;52.008;4.732;2023-02-05T07:15:21;11.57;;;2.93;;
19687;SDS011;9993;52.008;4.732;2023-02-05T07:17:46;9.17;;;3.53;;
19687;SDS011;9993;52.008;4.732;2023-02-05T07:20:12;7.63;;;2.87;;
19687;SDS011;9993;52.008;4.732;2023-02-05T07:22:37;10.43;;;2.97;;
19687;SDS011;9993;52.008;4.732;2023-02-05T07:25:02;6.53;;;3.00;;
19687;SDS011;9993;52.008;4.732;2023-02-05T07:27:27;12.33;;;3.73;;
19687;SDS011;9993;52.008;4.732;2023-02-05T07:29:54;12.43;;;3.10;;
19687;SDS011;9993;52.008;4.732;2023-02-05T07:32:19;8.63;;;2.87;;
19687;SDS011;9993;52.008;4.732;2023-02-05T07:34:44;13.60;;;3.30;;
19687;SDS011;9993;52.008;4.732;2023-02-05T07:37:10;18.33;;;4.20;;
19687;SDS011;9993;52.008;4.732;2023-02-05T07:39:45;12.43;;;2.90;;
19687;SDS011;9993;52.008;4.732;2023-02-05T07:42:16;12.20;;;4.00;;
19687;SDS011;9993;52.008;4.732;2023-02-05T07:44:42;10.97;;;3.07;;
19687;SDS011;9993;52.008;4.732;2023-02-05T07:47:07;7.67;;;2.27;;
19687;SDS011;9993;52.008;4.732;2023-02-05T07:49:32;14.27;;;4.50;;
19687;SDS011;9993;52.008;4.732;2023-02-05T07:51:57;6.77;;;3.07;;
19687;SDS011;9993;52.008;4.732;2023-02-05T07:54:22;15.70;;;4.60;;
19687;SDS011;9993;52.008;4.732;2023-02-05T07:56:48;14.00;;;3.87;;
19687;SDS011;9993;52.008;4.732;2023-02-05T07:59:13;15.73;;;3.27;;
19687;SDS011;9993;52.008;4.732;2023-02-05T08:01:39;13.67;;;3.37;;
19687;SDS011;9993;52.008;4.732;2023-02-05T08:04:04;16.10;;;5.00;;
19687;SDS011;9993;52.008;4.732;2023-02-05T08:06:29;12.90;;;4.23;;
19687;SDS011;9993;52.008;4.732;2023-02-05T08:08:54;15.60;;;3.47;;
19687;SDS011;9993;52.008;4.732;2023-02-05T08:11:20;21.97;;;4.90;;
19687;SDS011;9993;52.008;4.732;2023-02-05T08:13:46;15.37;;;4.40;;
19687;SDS011;9993;52.008;4.732;2023-02-05T08:16:11;16.37;;;4.40;;
19687;SDS011;9993;52.008;4.732;2023-02-05T08:18:37;17.40;;;4.80;;
19687;SDS011;9993;52.008;4.732;2023-02-05T08:21:02;10.53;;;3.60;;
19687;SDS011;9993;52.008;4.732;2023-02-05T08:23:27;18.27;;;4.17;;
19687;SDS011;9993;52.008;4.732;2023-02-05T08:25:53;17.50;;;4.87;;
19687;SDS011;9993;52.008;4.732;2023-02-05T08:28:42;19.93;;;4.97;;
19687;SDS011;9993;52.008;4.732;2023-02-05T08:33:54;13.73;;;3.50;;
19687;SDS011;9993;52.008;4.732;2023-02-05T08:36:20;15.23;;;2.87;;
19687;SDS011;9993;52.008;4.732;2023-02-05T08:38:46;15.87;;;5.17;;
19687;SDS011;9993;52.008;4.732;2023-02-05T08:44:04;18.63;;;4.93;;
19687;SDS011;9993;52.008;4.732;2023-02-05T08:46:29;19.37;;;5.50;;
19687;SDS011;9993;52.008;4.732;2023-02-05T08:48:55;19.60;;;4.27;;
19687;SDS011;9993;52.008;4.732;2023-02-05T08:51:20;13.20;;;4.50;;
19687;SDS011;9993;52.008;4.732;2023-02-05T08:53:47;17.90;;;4.33;;
19687;SDS011;9993;52.008;4.732;2023-02-05T08:56:12;17.13;;;4.73;;
19687;SDS011;9993;52.008;4.732;2023-02-05T08:58:38;21.87;;;4.90;;
19687;SDS011;9993;52.008;4.732;2023-02-05T09:01:06;19.57;;;5.17;;
19687;SDS011;9993;52.008;4.732;2023-02-05T09:03:32;20.70;;;4.33;;
19687;SDS011;9993;52.008;4.732;2023-02-05T09:05:57;13.00;;;3.70;;
19687;SDS011;9993;52.008;4.732;2023-02-05T09:08:23;14.00;;;4.80;;
19687;SDS011;9993;52.008;4.732;2023-02-05T09:10:48;15.30;;;4.33;;
19687;SDS011;9993;52.008;4.732;2023-02-05T09:13:14;15.53;;;4.57;;
19687;SDS011;9993;52.008;4.732;2023-02-05T09:15:43;16.50;;;5.30;;
19687;SDS011;9993;52.008;4.732;2023-02-05T09:18:08;19.60;;;3.77;;
19687;SDS011;9993;52.008;4.732;2023-02-05T09:20:33;19.63;;;5.37;;
19687;SDS011;9993;52.008;4.732;2023-02-05T09:22:59;17.03;;;4.00;;
19687;SDS011;9993;52.008;4.732;2023-02-05T09:25:24;21.10;;;4.70;;
19687;SDS011;9993;52.008;4.732;2023-02-05T09:27:49;19.50;;;5.13;;
19687;SDS011;9993;52.008;4.732;2023-02-05T09:30:15;21.57;;;4.70;;
19687;SDS011;9993;52.008;4.732;2023-02-05T09:32:40;22.27;;;5.97;;
19687;SDS011;9993;52.008;4.732;2023-02-05T09:35:05;20.97;;;5.20;;
19687;SDS011;9993;52.008;4.732;2023-02-05T09:37:30;19.17;;;5.30;;
19687;SDS011;9993;52.008;4.732;2023-02-05T09:39:55;21.53;;;6.37;;
19687;SDS011;9993;52.008;4.732;2023-02-05T09:42:32;22.57;;;5.60;;
19687;SDS011;9993;52.008;4.732;2023-02-05T09:50:31;15.53;;;5.00;;
19687;SDS011;9993;52.008;4.732;2023-02-05T09:53:01;20.93;;;4.80;;
19687;SDS011;9993;52.008;4.732;2023-02-05T09:55:34;18.30;;;4.50;;
19687;SDS011;9993;52.008;4.732;2023-02-05T09:58:10;14.67;;;4.50;;
19687;SDS011;9993;52.008;4.732;2023-02-05T10:03:16;16.60;;;6.07;;
19687;SDS011;9993;52.008;4.732;2023-02-05T10:05:53;11.73;;;3.83;;
19687;SDS011;9993;52.008;4.732;2023-02-05T10:08:27;21.47;;;4.87;;
19687;SDS011;9993;52.008;4.732;2023-02-05T10:10:53;20.20;;;5.30;;
19687;SDS011;9993;52.008;4.732;2023-02-05T10:21:22;17.57;;;5.97;;
19687;SDS011;9993;52.008;4.732;2023-02-05T10:26:48;23.50;;;4.00;;
19687;SDS011;9993;52.008;4.732;2023-02-05T10:34:15;18.77;;;5.10;;
19687;SDS011;9993;52.008;4.732;2023-02-05T10:36:41;14.23;;;4.27;;
19687;SDS011;9993;52.008;4.732;2023-02-05T10:39:10;19.87;;;5.07;;
19687;SDS011;9993;52.008;4.732;2023-02-05T10:46:55;13.73;;;3.90;;
19687;SDS011;9993;52.008;4.732;2023-02-05T10:49:37;28.73;;;6.27;;
19687;SDS011;9993;52.008;4.732;2023-02-05T10:52:04;14.83;;;4.03;;
19687;SDS011;9993;52.008;4.732;2023-02-05T10:54:30;25.50;;;5.50;;
19687;SDS011;9993;52.008;4.732;2023-02-05T10:56:57;18.93;;;5.33;;
19687;SDS011;9993;52.008;4.732;2023-02-05T10:59:27;16.23;;;4.67;;
19687;SDS011;9993;52.008;4.732;2023-02-05T11:01:53;18.23;;;5.50;;
19687;SDS011;9993;52.008;4.732;2023-02-05T11:06:53;21.57;;;5.13;;
19687;SDS011;9993;52.008;4.732;2023-02-05T11:11:50;28.77;;;6.10;;
19687;SDS011;9993;52.008;4.732;2023-02-05T11:14:20;21.30;;;5.70;;
19687;SDS011;9993;52.008;4.732;2023-02-05T11:16:46;23.83;;;5.47;;
19687;SDS011;9993;52.008;4.732;2023-02-05T11:19:17;19.57;;;5.17;;
19687;SDS011;9993;52.008;4.732;2023-02-05T11:21:44;17.40;;;4.47;;
19687;SDS011;9993;52.008;4.732;2023-02-05T11:24:09;24.73;;;6.27;;
19687;SDS011;9993;52.008;4.732;2023-02-05T11:26:45;17.03;;;5.30;;
19687;SDS011;9993;52.008;4.732;2023-02-05T11:29:19;17.20;;;4.17;;
19687;SDS011;9993;52.008;4.732;2023-02-05T11:31:45;18.97;;;4.13;;
19687;SDS011;9993;52.008;4.732;2023-02-05T11:34:12;13.43;;;3.87;;
19687;SDS011;9993;52.008;4.732;2023-02-05T11:36:46;17.67;;;4.67;;
19687;SDS011;9993;52.008;4.732;2023-02-05T11:42:20;13.80;;;4.67;;
19687;SDS011;9993;52.008;4.732;2023-02-05T11:44:56;15.37;;;5.60;;
19687;SDS011;9993;52.008;4.732;2023-02-05T11:47:29;18.23;;;5.23;;
19687;SDS011;9993;52.008;4.732;2023-02-05T11:49:55;12.97;;;4.63;;
19687;SDS011;9993;52.008;4.732;2023-02-05T11:52:25;10.60;;;4.10;;
19687;SDS011;9993;52.008;4.732;2023-02-05T11:54:50;17.37;;;5.60;;
19687;SDS011;9993;52.008;4.732;2023-02-05T11:59:41;14.60;;;5.33;;
19687;SDS011;9993;52.008;4.732;2023-02-05T12:02:24;13.20;;;4.07;;
19687;SDS011;9993;52.008;4.732;2023-02-05T12:05:01;14.10;;;3.53;;
19687;SDS011;9993;52.008;4.732;2023-02-05T12:07:28;21.63;;;4.97;;
19687;SDS011;9993;52.008;4.732;2023-02-05T12:09:55;14.70;;;4.20;;
19687;SDS011;9993;52.008;4.732;2023-02-05T12:12:29;16.87;;;3.80;;
19687;SDS011;9993;52.008;4.732;2023-02-05T12:15:02;13.03;;;3.90;;
19687;SDS011;9993;52.008;4.732;2023-02-05T12:25:26;16.40;;;3.87;;
19687;SDS011;9993;52.008;4.732;2023-02-05T12:36:27;15.30;;;4.27;;
19687;SDS011;9993;52.008;4.732;2023-02-05T12:52:02;8.33;;;3.27;;
19687;SDS011;9993;52.008;4.732;2023-02-05T12:54:32;12.20;;;3.83;;
19687;SDS011;9993;52.008;4.732;2023-02-05T13:00:03;12.43;;;4.03;;
19687;SDS011;9993;52.008;4.732;2023-02-05T13:02:37;13.53;;;3.60;;
19687;SDS011;9993;52.008;4.732;2023-02-05T13:07:33;12.97;;;3.87;;
19687;SDS011;9993;52.008;4.732;2023-02-05T13:10:01;11.83;;;4.57;;
19687;SDS011;9993;52.008;4.732;2023-02-05T13:12:27;9.83;;;3.70;;
19687;SDS011;9993;52.008;4.732;2023-02-05T13:14:55;14.63;;;3.47;;
19687;SDS011;9993;52.008;4.732;2023-02-05T13:17:25;9.27;;;3.50;;
19687;SDS011;9993;52.008;4.732;2023-02-05T13:19:52;12.43;;;4.03;;
19687;SDS011;9993;52.008;4.732;2023-02-05T13:22:20;11.13;;;3.10;;
19687;SDS011;9993;52.008;4.732;2023-02-05T13:25:12;9.40;;;3.20;;
19687;SDS011;9993;52.008;4.732;2023-02-05T13:31:05;11.47;;;4.13;;
19687;SDS011;9993;52.008;4.732;2023-02-05T13:33:33;10.47;;;3.87;;
19687;SDS011;9993;52.008;4.732;2023-02-05T13:38:42;10.53;;;3.90;;
19687;SDS011;9993;52.008;4.732;2023-02-05T13:41:16;14.20;;;3.63;;
19687;SDS011;9993;52.008;4.732;2023-02-05T13:46:18;12.07;;;3.80;;
19687;SDS011;9993;52.008;4.732;2023-02-05T13:51:47;15.60;;;3.77;;
19687;SDS011;9993;52.008;4.732;2023-02-05T13:54:22;13.23;;;3.57;;
19687;SDS011;9993;52.008;4.732;2023-02-05T13:56:55;13.10;;;4.03;;
19687;SDS011;9993;52.008;4.732;2023-02-05T13:59:40;16.43;;;4.07;;
19687;SDS011;9993;52.008;4.732;2023-02-05T14:04:47;21.40;;;3.00;;
19687;SDS011;9993;52.008;4.732;2023-02-05T14:07:22;12.43;;;4.03;;
19687;SDS011;9993;52.008;4.732;2023-02-05T14:09:50;10.40;;;3.43;;
19687;SDS011;9993;52.008;4.732;2023-02-05T14:12:21;12.70;;;4.30;;
19687;SDS011;9993;52.008;4.732;2023-02-05T14:15:20;18.33;;;5.53;;
19687;SDS011;9993;52.008;4.732;2023-02-05T14:20:03;15.70;;;4.80;;
19687;SDS011;9993;52.008;4.732;2023-02-05T14:22:48;9.43;;;3.70;;
19687;SDS011;9993;52.008;4.732;2023-02-05T14:27:57;16.07;;;5.20;;
19687;SDS011;9993;52.008;4.732;2023-02-05T14:33:02;8.80;;;3.50;;
19687;SDS011;9993;52.008;4.732;2023-02-05T14:35:34;14.23;;;5.07;;
19687;SDS011;9993;52.008;4.732;2023-02-05T14:41:21;15.90;;;5.33;;
19687;SDS011;9993;52.008;4.732;2023-02-05T14:43:39;13.57;;;3.93;;
19687;SDS011;9993;52.008;4.732;2023-02-05T14:46:06;14.33;;;4.63;;
19687;SDS011;9993;52.008;4.732;2023-02-05T14:48:43;11.87;;;4.13;;
19687;SDS011;9993;52.008;4.732;2023-02-05T14:51:17;16.93;;;5.07;;
19687;SDS011;9993;52.008;4.732;2023-02-05T14:53:51;18.03;;;5.07;;
19687;SDS011;9993;52.008;4.732;2023-02-05T14:56:25;20.87;;;4.87;;
19687;SDS011;9993;52.008;4.732;2023-02-05T14:58:56;11.07;;;4.03;;
19687;SDS011;9993;52.008;4.732;2023-02-05T15:03:58;14.93;;;4.90;;
19687;SDS011;9993;52.008;4.732;2023-02-05T15:06:24;18.67;;;5.10;;
19687;SDS011;9993;52.008;4.732;2023-02-05T15:08:56;16.67;;;5.07;;
19687;SDS011;9993;52.008;4.732;2023-02-05T15:19:41;15.30;;;4.30;;
19687;SDS011;9993;52.008;4.732;2023-02-05T15:22:19;19.80;;;4.83;;
19687;SDS011;9993;52.008;4.732;2023-02-05T15:24:47;19.33;;;4.83;;
19687;SDS011;9993;52.008;4.732;2023-02-05T15:27:14;12.37;;;4.00;;
19687;SDS011;9993;52.008;4.732;2023-02-05T15:29:40;19.07;;;5.87;;
19687;SDS011;9993;52.008;4.732;2023-02-05T15:32:13;17.47;;;5.13;;
19687;SDS011;9993;52.008;4.732;2023-02-05T15:34:41;17.43;;;5.17;;
19687;SDS011;9993;52.008;4.732;2023-02-05T15:40:00;18.90;;;5.20;;
19687;SDS011;9993;52.008;4.732;2023-02-05T15:42:44;15.83;;;4.73;;
19687;SDS011;9993;52.008;4.732;2023-02-05T15:45:26;14.93;;;4.80;;
19687;SDS011;9993;52.008;4.732;2023-02-05T15:48:05;20.07;;;4.83;;
19687;SDS011;9993;52.008;4.732;2023-02-05T15:50:31;17.77;;;4.63;;
19687;SDS011;9993;52.008;4.732;2023-02-05T15:52:58;21.40;;;5.97;;
19687;SDS011;9993;52.008;4.732;2023-02-05T15:55:23;21.50;;;4.97;;
19687;SDS011;9993;52.008;4.732;2023-02-05T15:57:50;21.60;;;4.70;;
19687;SDS011;9993;52.008;4.732;2023-02-05T16:00:21;17.27;;;4.93;;
19687;SDS011;9993;52.008;4.732;2023-02-05T16:05:38;16.93;;;5.23;;
19687;SDS011;9993;52.008;4.732;2023-02-05T16:08:13;23.23;;;5.07;;
19687;SDS011;9993;52.008;4.732;2023-02-05T16:10:38;21.43;;;5.50;;
19687;SDS011;9993;52.008;4.732;2023-02-05T16:13:15;16.53;;;4.53;;
19687;SDS011;9993;52.008;4.732;2023-02-05T16:18:53;19.90;;;5.13;;
19687;SDS011;9993;52.008;4.732;2023-02-05T16:20:59;22.53;;;5.73;;
19687;SDS011;9993;52.008;4.732;2023-02-05T16:25:55;18.73;;;4.57;;
19687;SDS011;9993;52.008;4.732;2023-02-05T16:28:22;13.57;;;5.27;;
19687;SDS011;9993;52.008;4.732;2023-02-05T16:30:48;16.80;;;5.20;;
19687;SDS011;9993;52.008;4.732;2023-02-05T16:35:50;16.20;;;5.07;;
19687;SDS011;9993;52.008;4.732;2023-02-05T16:38:16;26.93;;;6.27;;
19687;SDS011;9993;52.008;4.732;2023-02-05T16:40:43;13.07;;;4.07;;
19687;SDS011;9993;52.008;4.732;2023-02-05T16:48:35;28.73;;;6.13;;
19687;SDS011;9993;52.008;4.732;2023-02-05T16:51:01;20.97;;;5.17;;
19687;SDS011;9993;52.008;4.732;2023-02-05T16:53:27;19.00;;;5.60;;
19687;SDS011;9993;52.008;4.732;2023-02-05T16:55:55;26.00;;;6.50;;
19687;SDS011;9993;52.008;4.732;2023-02-05T16:58:35;20.00;;;4.87;;
19687;SDS011;9993;52.008;4.732;2023-02-05T17:01:01;19.13;;;5.37;;
19687;SDS011;9993;52.008;4.732;2023-02-05T17:03:29;19.30;;;5.13;;
19687;SDS011;9993;52.008;4.732;2023-02-05T17:05:58;23.40;;;5.20;;
19687;SDS011;9993;52.008;4.732;2023-02-05T17:08:27;13.80;;;4.13;;
19687;SDS011;9993;52.008;4.732;2023-02-05T17:10:55;22.87;;;6.70;;
19687;SDS011;9993;52.008;4.732;2023-02-05T17:13:28;19.57;;;6.43;;
19687;SDS011;9993;52.008;4.732;2023-02-05T17:15:53;19.53;;;5.67;;
19687;SDS011;9993;52.008;4.732;2023-02-05T17:18:26;20.87;;;5.33;;
19687;SDS011;9993;52.008;4.732;2023-02-05T17:21:35;24.17;;;6.07;;
19687;SDS011;9993;52.008;4.732;2023-02-05T17:23:46;18.97;;;5.23;;
19687;SDS011;9993;52.008;4.732;2023-02-05T17:26:11;18.40;;;4.73;;
19687;SDS011;9993;52.008;4.732;2023-02-05T17:28:36;23.10;;;5.10;;
19687;SDS011;9993;52.008;4.732;2023-02-05T17:31:06;26.23;;;5.70;;
19687;SDS011;9993;52.008;4.732;2023-02-05T17:33:31;23.67;;;6.63;;
19687;SDS011;9993;52.008;4.732;2023-02-05T17:35:57;25.83;;;6.27;;
19687;SDS011;9993;52.008;4.732;2023-02-05T17:38:22;17.17;;;5.83;;
19687;SDS011;9993;52.008;4.732;2023-02-05T17:40:47;21.03;;;4.47;;
19687;SDS011;9993;52.008;4.732;2023-02-05T17:43:13;21.50;;;4.90;;